Date,TemperatureHighF,TemperatureAvgF,TemperatureLowF,DewpointHighF,DewpointAvgF,DewpointLowF,HumidityHigh,HumidityAvg,HumidityLow,PressureMaxIn,PressureMinIn,WindSpeedMaxMPH,WindSpeedAvgMPH,GustSpeedMaxMPH,PrecipitationSumIn
2013-2-7,15,9,0,-4,-9,-13,62,45,30,30.50,30.28,4,1,12,0.00
2013-2-8,23,18,14,21,13,-4,95,82,44,30.38,29.86,6,1,18,0.00
2013-2-9,16,9,-6,13,2,-10,90,73,58,30.29,29.84,11,4,28,0.00
2013-2-10,28,5,-14,9,-4,-20,88,69,30,30.44,30.26,1,0,7,0.15
2013-2-11,32,21,2,32,19,-1,100,89,73,30.24,29.51,2,0,13,0.00
2013-2-12,33,32,32,29,28,27,88,85,82,29.73,29.67,3,1,10,0.10
2013-2-13,35,30,27,26,25,20,91,81,57,29.76,29.67,3,0,11,0.02
2013-2-14,34,28,22,26,21,18,95,78,54,29.89,29.66,2,0,9,0.00
2013-2-15,43,31,23,31,25,20,95,78,48,29.88,29.77,9,1,25,0.01
2013-2-16,29,24,16,24,14,3,92,66,42,29.92,29.82,6,1,14,0.00
2013-2-17,16,11,8,5,2,-1,77,67,60,29.82,29.57,8,2,25,0.00
2013-2-18,24,11,2,0,-4,-12,74,54,21,30.10,29.73,9,2,21,0.00
2013-2-19,41,23,2,32,10,-5,99,62,26,30.11,29.51,4,1,16,0.00
2013-2-20,32,26,21,32,21,15,100,85,60,29.64,29.46,8,2,20,0.01
2013-2-21,21,14,8,19,9,3,95,79,68,30.29,29.64,6,2,18,0.00
2013-2-22,33,24,13,22,19,11,93,79,58,30.39,30.18,4,0,9,0.06
2013-2-23,33,31,30,30,26,19,100,82,64,30.18,29.85,4,1,15,0.01
2013-2-24,36,31,30,34,31,28,100,97,91,29.85,29.70,3,0,10,0.17
2013-2-25,36,32,31,31,30,28,99,91,79,30.16,29.85,3,0,9,0.01
2013-2-26,40,34,29,32,29,27,100,84,61,30.26,30.07,6,0,12,0.00
2013-2-27,37,33,31,33,30,25,100,88,74,30.07,29.57,7,1,21,0.11
2013-2-28,41,34,30,37,33,30,100,95,79,29.58,29.49,1,0,5,0.25